Carson City, NV (89714)

1:25 AM PDT on May 06, 2015 (GMT -0700)
APRSWXNET | | Change Station
CLOSE
Current Station
Personal Weather Station
Location: Carson City, NV
Elevation: 4619 ft
Nearby Weather Stations

Elev 4619 ft 39.16 °N, 119.72 °W | Updated 34 minutes ago

Clear
Clear
48 °F
Feels Like 48 °F
N
3
Wind Variable Wind from NE
Gusts 5.0 mph

Today
High -- | Low -- °F
--% Chance of Precip.
Yesterday
High -- | Low -- °F
Precip. -- in
5:54 AM 7:56 PM
Waning Gibbous, 95% visible
Pressure 29.77 in
Visibility 10.0 miles
Clouds Scattered Clouds 25000 ft
Windchill 48 °F
Dew Point 30 °F
Humidity 50%
Rainfall in
Snow Depth Not available.
UV 0 out of 12
Pollen 8.50 out of 12
Air Quality Not available.
Flu Activity Sporadic
METAR KRNO 060755Z 29006KT 10SM SCT250 14/M03 A2990 RMK AO2 SLP079 T01391033 402560072

More Conditions Fewer Conditions

Pressure 29.77 in
Visibility 10.0 miles
Clouds Scattered Clouds 25000 ft
Windchill 48 °F
Dew Point 30 °F
Humidity 50%
Rainfall in
Snow Depth Not available.
UV 0 out of 12
Pollen 8.50 out of 12
Air Quality Not available.
Flu Activity Sporadic
METAR KRNO 060755Z 29006KT 10SM SCT250 14/M03 A2990 RMK AO2 SLP079 T01391033 402560072

More Conditions Fewer Conditions

10-Day Weather Forecast

Almanac

Astronomy

May. 06, 2015 Rise Set
Actual Time
Civil Twilight
Nautical Twilight
Astronomical Twilight
Moon
Length of Visible Light
Length of Day
Tomorrow will be .
, % of the Moon is Illuminated

Today's Extremes

State Highs State Lows

Community

WunderPhotos

Upload Photos

1,818,852 photos uploaded!

WunderBlogs® & News

Nearby

Air Quality

  Air Quality AQ Index Pollutant
Not available.

Snow Depth

Station Depth Elevation

Earthquake Activity

City Distance Mag. Time & Date
Minimum magnitude displayed is 2.5.

Coastal Water Temperatures

Place Temperature

Stations

Nearby Weather Stations

Station Location Temp. Windchill Dew Point Humidity Wind Precip. Elev Updated Type